IXT weather

Pasighat Airport
Pasighat, Arunachal Pradesh, India

Public forecast

Using degrees Celsius for public forecast. Weather courtesy of forecast.io.

Closest aviation weather report (METAR) to Pasighat Airport

Report is more than 6 hours old.

Closest report is Dibrugarh Airport, 38.8 nm (71.9 km) SSW. Retrieved 2019/10/21 11:00 UTC (11 hours ago):

VEMN 211100Z 04008KT 3000 BR FEW010 SCT018 FEW025CB BKN100 22/20 Q1008 NOSIG

Closest aviation forecast (TAF) to Pasighat Airport

Forecast is more than 12 hours old.

Closest forecast is Along Airport, 29.0 nm (53.7 km) WNW. Retrieved 2019/09/10 06:30 UTC (1 month ago):

TAF VEAN 100330Z 1006/1018 09008KT 6000 SCT020 SCT025 BKN090 TEMPO 1014/1018 3000 TSRA SCT025 FEW030CB BKN090